Time;durP1;ratioP1;P1;durP2;ratioP2;P2;SDS_P1;SDS_P2;PMS_P1;PMS_P2;Temp;Humidity;BMP_temperature;BMP_pressure;BME280_temperature;BME280_humidity;BME280_pressure;Samples;Min_cycle;Max_cycle;Signal;HPM_P1;HPM_P2
2023/11/21 00:00:49;;;;;;;4.10;1.85;;;11.40;99.90;;;;;;4958793;28;20031;-64
2023/11/21 00:03:15;;;;;;;4.97;2.00;;;11.40;99.90;;;;;;4963371;28;20049;-65
2023/11/21 00:05:41;;;;;;;2.50;1.73;;;11.40;99.90;;;;;;4958973;28;20031;-65
2023/11/21 00:08:08;;;;;;;3.50;1.63;;;11.40;99.90;;;;;;4961510;28;20482;-65
2023/11/21 00:10:35;;;;;;;2.50;1.42;;;11.40;99.90;;;;;;4960036;28;20035;-65
2023/11/21 00:13:02;;;;;;;2.08;1.60;;;11.40;99.90;;;;;;4964729;28;20030;-64
2023/11/21 00:15:28;;;;;;;4.38;1.45;;;11.40;99.90;;;;;;4959303;28;20077;-65
2023/11/21 00:17:54;;;;;;;3.03;1.38;;;11.40;99.90;;;;;;4962557;28;20113;-64
2023/11/21 00:20:21;;;;;;;4.75;1.20;;;11.40;99.90;;;;;;4958015;28;20047;-64
2023/11/21 00:22:47;;;;;;;3.60;1.85;;;11.40;99.90;;;;;;4962198;28;20063;-64
2023/11/21 00:25:15;;;;;;;2.00;1.20;;;11.40;99.90;;;;;;4959203;28;20069;-64
2023/11/21 00:27:42;;;;;;;1.35;1.10;;;11.40;99.90;;;;;;4961360;28;20106;-64
2023/11/21 00:30:08;;;;;;;3.25;1.52;;;11.40;99.90;;;;;;4958062;28;20109;-64
2023/11/21 00:32:37;;;;;;;1.30;1.02;;;11.40;99.90;;;;;;4950267;28;20027;-64
2023/11/21 00:35:04;;;;;;;2.40;1.05;;;11.40;99.90;;;;;;4960931;28;20031;-64
2023/11/21 00:37:31;;;;;;;1.20;1.10;;;11.40;99.90;;;;;;4957506;28;20456;-64
2023/11/21 00:39:58;;;;;;;1.38;0.95;;;11.40;99.90;;;;;;4961127;28;20030;-64
2023/11/21 00:42:24;;;;;;;1.27;1.10;;;11.40;99.90;;;;;;4948234;28;20039;-64
2023/11/21 00:44:50;;;;;;;2.05;1.23;;;11.40;99.90;;;;;;4962453;28;20038;-64
2023/11/21 00:47:16;;;;;;;2.33;1.17;;;11.50;99.90;;;;;;4939151;29;20681;-64
2023/11/21 00:49:43;;;;;;;2.35;1.20;;;11.40;99.90;;;;;;4963266;28;20403;-66
2023/11/21 00:52:09;;;;;;;1.48;1.23;;;11.40;99.90;;;;;;4944984;28;20018;-66
2023/11/21 00:54:35;;;;;;;1.70;1.30;;;11.30;99.90;;;;;;4943196;28;20039;-66
2023/11/21 00:57:01;;;;;;;2.85;1.45;;;11.20;99.90;;;;;;4959947;28;20380;-66
2023/11/21 00:59:27;;;;;;;2.00;1.48;;;11.20;99.90;;;;;;4942805;28;20042;-66
2023/11/21 01:01:54;;;;;;;3.03;2.10;;;11.20;99.90;;;;;;4960375;28;20036;-66
2023/11/21 01:04:20;;;;;;;3.05;2.15;;;11.10;99.90;;;;;;4946810;28;20094;-66
2023/11/21 01:06:46;;;;;;;3.55;2.10;;;11.10;99.90;;;;;;4961392;28;20027;-66
2023/11/21 01:09:12;;;;;;;4.65;2.42;;;11.00;99.90;;;;;;4959317;28;20050;-64
2023/11/21 01:11:38;;;;;;;3.25;2.17;;;10.90;99.90;;;;;;4959968;28;20093;-66
2023/11/21 01:14:06;;;;;;;5.65;2.42;;;10.90;99.90;;;;;;4948651;28;20031;-64
2023/11/21 01:16:32;;;;;;;2.92;2.30;;;10.90;99.90;;;;;;4961801;28;20037;-64
2023/11/21 01:18:59;;;;;;;3.22;2.05;;;10.70;99.90;;;;;;4956879;28;20026;-64
2023/11/21 01:21:25;;;;;;;6.25;2.67;;;10.70;99.90;;;;;;4948721;28;20102;-64
2023/11/21 01:23:51;;;;;;;4.65;2.22;;;10.60;99.90;;;;;;4946861;28;20554;-64
2023/11/21 01:26:17;;;;;;;8.80;3.00;;;10.50;99.90;;;;;;4958758;28;20033;-64
2023/11/21 01:28:43;;;;;;;5.05;2.50;;;10.50;99.90;;;;;;4958712;28;20494;-63
2023/11/21 01:31:09;;;;;;;5.43;2.97;;;10.50;99.90;;;;;;4943980;28;20042;-66
2023/11/21 01:33:35;;;;;;;6.18;3.03;;;10.40;99.90;;;;;;4942814;28;20031;-66
2023/11/21 01:36:00;;;;;;;6.78;3.00;;;10.40;99.90;;;;;;4942530;28;20122;-66
2023/11/21 01:38:27;;;;;;;3.58;2.75;;;10.30;99.90;;;;;;4960261;28;20644;-66
2023/11/21 01:40:53;;;;;;;3.90;2.35;;;10.30;99.90;;;;;;4940116;28;20070;-66
2023/11/21 01:43:19;;;;;;;5.45;2.88;;;10.20;99.90;;;;;;4946690;28;20047;-66
2023/11/21 01:45:45;;;;;;;5.15;2.63;;;10.20;99.90;;;;;;4958798;28;20105;-66
2023/11/21 01:48:13;;;;;;;3.28;2.35;;;10.00;99.90;;;;;;4961236;28;20046;-66
2023/11/21 01:50:39;;;;;;;4.50;2.55;;;10.00;99.90;;;;;;4962215;28;20033;-66
2023/11/21 01:53:06;;;;;;;6.30;2.83;;;10.00;99.90;;;;;;4947588;28;20494;-66
2023/11/21 01:55:33;;;;;;;3.60;2.60;;;10.00;99.90;;;;;;4948042;28;20050;-66
2023/11/21 01:58:01;;;;;;;3.40;2.38;;;10.00;99.90;;;;;;4958800;28;20098;-66
2023/11/21 02:00:28;;;;;;;4.68;3.08;;;9.90;99.90;;;;;;4946877;28;20124;-66
2023/11/21 02:02:56;;;;;;;3.53;2.65;;;9.90;99.90;;;;;;4942664;28;20022;-66
2023/11/21 02:05:22;;;;;;;3.63;2.90;;;9.90;99.90;;;;;;4948689;28;20092;-66
2023/11/21 02:07:48;;;;;;;5.85;2.50;;;9.90;99.90;;;;;;4947570;28;20023;-66
2023/11/21 02:10:15;;;;;;;6.05;3.10;;;9.80;99.90;;;;;;4942119;28;20023;-66
2023/11/21 02:12:42;;;;;;;5.05;3.53;;;9.80;99.90;;;;;;4940931;28;20415;-66
2023/11/21 02:15:14;;;;;;;6.85;3.97;;;9.80;99.90;;;;;;4962546;28;20035;-66
2023/11/21 02:17:43;;;;;;;7.93;3.90;;;9.80;99.90;;;;;;4939139;28;20035;-66
2023/11/21 02:20:15;;;;;;;6.03;3.83;;;9.70;99.90;;;;;;4961783;28;20037;-67
2023/11/21 02:22:45;;;;;;;6.93;4.35;;;9.70;99.90;;;;;;4960783;28;20651;-66
2023/11/21 02:25:11;;;;;;;10.05;4.90;;;9.70;99.90;;;;;;4948753;28;20031;-66
2023/11/21 02:27:37;;;;;;;9.68;4.80;;;9.60;99.90;;;;;;4949094;28;20038;-66
2023/11/21 02:30:05;;;;;;;9.80;5.72;;;9.60;99.90;;;;;;4948224;28;20070;-67
2023/11/21 02:32:31;;;;;;;12.13;4.72;;;9.60;99.90;;;;;;4946239;28;20027;-66
2023/11/21 02:35:00;;;;;;;9.05;5.00;;;9.70;99.90;;;;;;4961126;28;20039;-67
2023/11/21 02:37:27;;;;;;;8.75;4.93;;;9.60;99.90;;;;;;4965533;28;20049;-67
2023/11/21 02:39:53;;;;;;;6.35;4.05;;;9.60;99.90;;;;;;4959232;28;20039;-66
2023/11/21 02:42:18;;;;;;;7.18;4.57;;;9.60;99.90;;;;;;4947372;28;20090;-67
2023/11/21 02:44:44;;;;;;;8.20;4.88;;;9.60;99.90;;;;;;4964023;28;20062;-67
2023/11/21 02:47:10;;;;;;;7.43;4.35;;;9.60;99.90;;;;;;4957914;28;20130;-66
2023/11/21 02:49:36;;;;;;;7.53;4.97;;;9.60;99.90;;;;;;4965196;28;20387;-66
2023/11/21 02:52:03;;;;;;;7.80;4.22;;;9.50;99.90;;;;;;4962343;28;20046;-67
2023/11/21 02:54:29;;;;;;;6.43;3.75;;;9.40;99.90;;;;;;4967152;28;20157;-66
2023/11/21 02:56:55;;;;;;;8.18;4.35;;;9.40;99.90;;;;;;4958599;28;20122;-66
2023/11/21 02:59:20;;;;;;;8.73;3.97;;;9.40;99.90;;;;;;4963424;28;20043;-67
2023/11/21 03:01:46;;;;;;;5.38;3.80;;;9.40;99.90;;;;;;4959472;28;20034;-66
2023/11/21 03:04:17;;;;;;;7.00;3.63;;;9.40;99.90;;;;;;4949068;28;20039;-66
2023/11/21 03:06:45;;;;;;;11.82;4.55;;;9.40;99.90;;;;;;4948507;28;20049;-67
2023/11/21 03:09:12;;;;;;;5.10;3.55;;;9.40;99.90;;;;;;4961220;28;20053;-67
2023/11/21 03:11:38;;;;;;;6.35;4.32;;;9.30;99.90;;;;;;4942142;28;20502;-67
2023/11/21 03:14:05;;;;;;;5.65;3.80;;;9.30;99.90;;;;;;4942588;28;20092;-66
2023/11/21 03:16:32;;;;;;;6.07;3.75;;;9.20;99.90;;;;;;4946057;28;20038;-67
2023/11/21 03:18:58;;;;;;;7.03;4.65;;;9.20;99.90;;;;;;4960163;28;20022;-67
2023/11/21 03:21:26;;;;;;;7.20;4.60;;;9.20;99.90;;;;;;4958341;28;20513;-66
2023/11/21 03:23:52;;;;;;;6.90;4.50;;;9.20;99.90;;;;;;4943011;28;20061;-66
2023/11/21 03:26:18;;;;;;;8.43;4.88;;;9.20;99.90;;;;;;4961381;28;20035;-66
2023/11/21 03:28:46;;;;;;;6.57;4.45;;;9.20;99.90;;;;;;4958045;28;20557;-66
2023/11/21 03:31:11;;;;;;;7.97;4.78;;;9.20;99.90;;;;;;4945701;28;20039;-66
2023/11/21 03:33:37;;;;;;;6.15;4.15;;;9.20;99.90;;;;;;4950038;28;20065;-66
2023/11/21 03:36:03;;;;;;;8.77;4.65;;;9.10;99.90;;;;;;4961911;28;20046;-66
2023/11/21 03:38:30;;;;;;;8.20;5.15;;;9.10;99.90;;;;;;4958639;28;20146;-66
2023/11/21 03:40:56;;;;;;;7.70;4.80;;;9.10;99.90;;;;;;4943201;28;20747;-66
2023/11/21 03:43:23;;;;;;;7.70;4.72;;;9.10;99.90;;;;;;4961025;28;20109;-66
2023/11/21 03:45:49;;;;;;;7.20;4.22;;;9.10;99.90;;;;;;4957909;28;20126;-66
2023/11/21 03:48:16;;;;;;;8.13;4.72;;;9.00;99.90;;;;;;4960892;28;20046;-66
2023/11/21 03:50:42;;;;;;;8.82;4.80;;;9.00;99.90;;;;;;4956806;28;20035;-67
2023/11/21 03:53:08;;;;;;;7.22;4.80;;;9.00;99.90;;;;;;4901811;28;1373617;-66
2023/11/21 03:55:34;;;;;;;9.05;4.82;;;8.90;99.90;;;;;;4958046;28;20044;-66
2023/11/21 03:58:00;;;;;;;7.70;4.38;;;8.90;99.90;;;;;;4948644;28;20612;-66
2023/11/21 04:00:26;;;;;;;11.13;5.10;;;8.90;99.90;;;;;;4959854;28;20026;-66
2023/11/21 04:02:53;;;;;;;7.60;4.70;;;8.90;99.90;;;;;;4962783;28;20856;-67
2023/11/21 04:05:21;;;;;;;8.20;4.97;;;8.80;99.90;;;;;;4961570;28;20030;-66
2023/11/21 04:07:49;;;;;;;6.68;4.88;;;8.70;99.90;;;;;;4960046;28;20812;-66
2023/11/21 04:10:16;;;;;;;9.88;5.22;;;8.80;99.90;;;;;;4960263;28;20066;-66
2023/11/21 04:12:42;;;;;;;7.55;4.68;;;8.70;99.90;;;;;;4958439;28;20035;-66
2023/11/21 04:15:09;;;;;;;9.20;4.85;;;8.70;99.90;;;;;;4961325;28;20094;-66
2023/11/21 04:17:36;;;;;;;7.05;4.28;;;8.70;99.90;;;;;;4960070;28;20026;-66
2023/11/21 04:20:08;;;;;;;10.60;5.20;;;8.70;99.90;;;;;;4959923;28;20491;-66
2023/11/21 04:22:36;;;;;;;8.98;5.25;;;8.70;99.90;;;;;;4958307;28;20030;-66
2023/11/21 04:25:02;;;;;;;10.50;5.20;;;8.70;99.90;;;;;;4961344;28;20038;-66
2023/11/21 04:27:28;;;;;;;7.13;4.22;;;8.80;99.90;;;;;;4959770;28;20671;-66
2023/11/21 04:29:54;;;;;;;7.50;4.50;;;8.80;99.90;;;;;;4962274;28;20034;-66
2023/11/21 04:32:20;;;;;;;6.35;4.68;;;8.70;99.90;;;;;;4961415;28;20113;-66
2023/11/21 04:34:46;;;;;;;7.28;4.50;;;8.80;99.90;;;;;;4944388;28;20821;-66
2023/11/21 04:37:12;;;;;;;8.30;5.22;;;8.80;99.90;;;;;;4958477;28;20039;-66
2023/11/21 04:39:37;;;;;;;11.35;5.70;;;8.80;99.90;;;;;;4961056;28;20049;-66
2023/11/21 04:42:04;;;;;;;9.43;5.63;;;8.80;99.90;;;;;;4943784;28;20027;-66
2023/11/21 04:44:30;;;;;;;9.27;5.68;;;8.80;99.90;;;;;;4959228;28;20046;-66
2023/11/21 04:46:56;;;;;;;7.88;5.50;;;8.70;99.90;;;;;;4960322;28;20030;-66
2023/11/21 04:49:21;;;;;;;12.02;6.10;;;8.80;99.90;;;;;;4959945;28;20023;-66
2023/11/21 04:51:47;;;;;;;10.43;6.32;;;8.70;99.90;;;;;;4967164;28;20042;-67
2023/11/21 04:54:14;;;;;;;9.88;5.53;;;8.70;99.90;;;;;;4958627;28;20733;-66
2023/11/21 04:56:39;;;;;;;12.57;7.03;;;8.70;99.90;;;;;;4961193;28;20039;-66
2023/11/21 04:59:05;;;;;;;12.13;6.10;;;8.70;99.90;;;;;;4960124;28;20109;-66
2023/11/21 05:01:32;;;;;;;10.05;6.50;;;8.80;99.90;;;;;;4961807;28;20112;-66
2023/11/21 05:03:58;;;;;;;8.95;5.63;;;8.80;99.90;;;;;;4960687;28;20084;-67
2023/11/21 05:06:24;;;;;;;10.13;6.15;;;8.70;99.90;;;;;;4963449;28;20038;-66
2023/11/21 05:08:50;;;;;;;12.40;6.22;;;8.70;99.90;;;;;;4957167;28;20757;-66
2023/11/21 05:11:29;;;;;;;11.50;6.88;;;8.70;99.90;;;;;;4962128;28;20061;-66
2023/11/21 05:13:59;;;;;;;13.63;6.10;;;8.60;99.90;;;;;;4960566;28;20035;-66
2023/11/21 05:16:27;;;;;;;12.07;6.68;;;8.60;99.90;;;;;;4959108;28;20041;-66
2023/11/21 05:18:56;;;;;;;12.85;6.60;;;8.60;99.90;;;;;;4959249;28;20031;-66
2023/11/21 05:21:22;;;;;;;10.70;6.47;;;8.60;99.90;;;;;;4961887;28;20042;-66
2023/11/21 05:23:48;;;;;;;13.30;7.20;;;8.60;99.90;;;;;;4961279;28;20035;-66
2023/11/21 05:26:14;;;;;;;13.18;7.40;;;8.70;99.90;;;;;;4960164;28;20094;-67
2023/11/21 05:28:41;;;;;;;10.32;6.25;;;8.70;99.90;;;;;;4959574;28;20034;-66
2023/11/21 05:31:06;;;;;;;12.07;6.72;;;8.70;99.90;;;;;;4958609;28;20129;-66
2023/11/21 05:33:33;;;;;;;12.57;7.00;;;8.70;99.90;;;;;;4964495;28;20043;-66
2023/11/21 05:35:59;;;;;;;12.07;7.00;;;8.70;99.90;;;;;;4939271;28;20031;-66
2023/11/21 05:38:25;;;;;;;11.13;6.38;;;8.60;99.90;;;;;;4962282;28;20038;-66
2023/11/21 05:40:51;;;;;;;9.38;5.90;;;8.60;99.90;;;;;;4959179;28;20041;-66
2023/11/21 05:43:17;;;;;;;11.63;5.97;;;8.60;99.90;;;;;;4961054;28;20403;-66
2023/11/21 05:45:44;;;;;;;9.93;6.13;;;8.60;99.90;;;;;;4959055;28;20038;-66
2023/11/21 05:48:10;;;;;;;9.32;6.03;;;8.50;99.90;;;;;;4958834;28;20039;-66
2023/11/21 05:50:37;;;;;;;10.18;5.88;;;8.60;99.90;;;;;;4960798;28;20345;-66
2023/11/21 05:53:03;;;;;;;12.38;5.88;;;8.60;99.90;;;;;;4957792;28;20121;-66
2023/11/21 05:55:29;;;;;;;11.13;6.75;;;8.60;99.90;;;;;;4960673;28;20126;-66
2023/11/21 05:57:55;;;;;;;10.88;6.05;;;8.50;99.90;;;;;;4958063;28;20406;-66
2023/11/21 06:00:21;;;;;;;11.48;6.68;;;8.50;99.90;;;;;;4961961;28;20055;-66
2023/11/21 06:02:50;;;;;;;11.48;7.28;;;8.50;99.90;;;;;;4958526;28;20889;-66
2023/11/21 06:05:18;;;;;;;11.45;6.40;;;8.50;99.90;;;;;;4959509;28;20023;-66
2023/11/21 06:07:45;;;;;;;11.68;6.32;;;8.50;99.90;;;;;;4958858;28;20483;-66
2023/11/21 06:10:14;;;;;;;9.10;5.28;;;8.60;99.90;;;;;;4943434;28;20097;-66
2023/11/21 06:12:42;;;;;;;11.05;6.57;;;8.60;99.90;;;;;;4957967;28;20368;-66
2023/11/21 06:15:12;;;;;;;10.75;5.90;;;8.60;99.90;;;;;;4958418;28;20502;-66
2023/11/21 06:17:39;;;;;;;12.23;6.10;;;8.60;99.90;;;;;;4959361;28;20643;-66
2023/11/21 06:20:13;;;;;;;11.00;6.40;;;8.60;99.90;;;;;;4959614;28;20078;-66
2023/11/21 06:22:44;;;;;;;13.32;6.13;;;8.60;99.90;;;;;;4958775;28;20031;-66
2023/11/21 06:25:12;;;;;;;10.75;6.28;;;8.60;99.90;;;;;;4957379;28;20282;-66
2023/11/21 06:27:40;;;;;;;11.23;6.13;;;8.60;99.90;;;;;;4959938;28;20035;-66
2023/11/21 06:30:08;;;;;;;11.25;6.45;;;8.60;99.90;;;;;;4947835;28;20037;-66
2023/11/21 06:32:35;;;;;;;9.75;5.68;;;8.60;99.90;;;;;;4965266;28;20038;-66
2023/11/21 06:35:05;;;;;;;10.60;5.53;;;8.50;99.90;;;;;;4958211;28;20039;-67
2023/11/21 06:37:31;;;;;;;11.27;6.00;;;8.50;99.90;;;;;;4959698;28;20831;-66
2023/11/21 06:39:58;;;;;;;11.40;5.95;;;8.50;99.90;;;;;;4959414;28;20039;-66
2023/11/21 06:42:24;;;;;;;8.73;5.10;;;8.50;99.90;;;;;;4959854;28;20077;-66
2023/11/21 06:44:56;;;;;;;12.07;6.22;;;8.50;99.90;;;;;;4962423;28;20041;-66
2023/11/21 06:47:26;;;;;;;11.30;5.40;;;8.50;99.90;;;;;;4958344;28;20038;-66
2023/11/21 06:49:55;;;;;;;11.45;6.35;;;8.50;99.90;;;;;;4958789;28;20030;-66
2023/11/21 06:52:21;;;;;;;11.90;5.70;;;8.50;99.90;;;;;;4958591;28;20034;-67
2023/11/21 06:54:49;;;;;;;10.32;6.00;;;8.50;99.90;;;;;;4966572;28;20066;-65
2023/11/21 06:57:15;;;;;;;10.27;6.18;;;8.50;99.90;;;;;;4961059;28;20035;-66
2023/11/21 06:59:42;;;;;;;11.13;7.00;;;8.50;99.90;;;;;;4961954;28;20122;-66
2023/11/21 07:02:09;;;;;;;11.85;5.97;;;8.50;99.90;;;;;;4942063;28;20388;-66
2023/11/21 07:04:35;;;;;;;11.38;5.93;;;8.40;99.90;;;;;;4960247;28;20141;-66
2023/11/21 07:07:03;;;;;;;13.32;6.03;;;8.30;99.90;;;;;;4956104;28;20113;-66
2023/11/21 07:09:30;;;;;;;10.27;5.82;;;8.30;99.90;;;;;;4963079;28;20039;-66
2023/11/21 07:11:56;;;;;;;11.23;6.15;;;8.30;99.90;;;;;;4962771;28;20121;-67
2023/11/21 07:14:23;;;;;;;14.70;6.30;;;8.30;99.90;;;;;;4961264;28;20063;-66
2023/11/21 07:16:49;;;;;;;9.60;5.63;;;8.30;99.90;;;;;;4966094;28;20034;-66
2023/11/21 07:19:15;;;;;;;10.27;6.05;;;8.30;99.90;;;;;;4941070;28;20546;-66
2023/11/21 07:21:41;;;;;;;8.60;5.20;;;8.30;99.90;;;;;;4965174;28;20398;-66
2023/11/21 07:24:08;;;;;;;8.98;5.22;;;8.30;99.90;;;;;;4967230;28;20479;-66
2023/11/21 07:26:35;;;;;;;9.95;5.28;;;8.30;99.90;;;;;;4966949;28;20031;-66
2023/11/21 07:29:02;;;;;;;10.82;5.53;;;8.10;99.90;;;;;;4960992;28;20031;-66
2023/11/21 07:31:29;;;;;;;7.70;4.55;;;8.00;99.90;;;;;;4961636;28;20030;-66
2023/11/21 07:33:59;;;;;;;10.15;5.32;;;8.00;99.90;;;;;;4951697;28;20612;-66
2023/11/21 07:36:25;;;;;;;8.88;5.38;;;8.00;99.90;;;;;;4960711;28;20407;-66
2023/11/21 07:38:51;;;;;;;11.57;5.80;;;8.00;99.90;;;;;;4962459;28;20035;-66
2023/11/21 07:41:18;;;;;;;9.20;5.18;;;8.10;99.90;;;;;;4960175;28;20026;-66
2023/11/21 07:43:45;;;;;;;8.77;4.80;;;8.10;99.90;;;;;;4961553;28;20354;-66
2023/11/21 07:46:14;;;;;;;7.82;4.32;;;8.10;99.90;;;;;;4960444;28;20038;-66
2023/11/21 07:48:42;;;;;;;7.75;4.38;;;8.00;99.90;;;;;;4962843;28;20046;-66
2023/11/21 07:51:09;;;;;;;8.18;3.97;;;8.00;99.90;;;;;;4959285;28;20022;-66
2023/11/21 07:53:36;;;;;;;7.43;4.50;;;8.10;99.90;;;;;;4962718;28;20067;-66
2023/11/21 07:56:09;;;;;;;8.73;4.35;;;8.00;99.90;;;;;;4960410;28;20043;-67
2023/11/21 07:58:36;;;;;;;7.13;4.18;;;8.00;99.90;;;;;;4961973;28;20675;-66
2023/11/21 08:01:03;;;;;;;7.05;4.03;;;8.00;99.90;;;;;;4962827;28;20039;-66
2023/11/21 08:03:32;;;;;;;7.13;3.90;;;8.00;99.90;;;;;;4963285;28;20049;-66
2023/11/21 08:05:59;;;;;;;6.78;3.88;;;8.00;99.90;;;;;;4948675;28;20052;-66
2023/11/21 08:08:25;;;;;;;9.65;4.78;;;8.10;99.90;;;;;;4960124;28;20031;-66
2023/11/21 08:10:58;;;;;;;9.45;4.47;;;8.10;99.90;;;;;;4962219;28;20045;-66
2023/11/21 08:13:25;;;;;;;8.40;4.25;;;8.10;99.90;;;;;;4960014;28;20129;-66
2023/11/21 08:15:54;;;;;;;8.73;4.82;;;8.20;99.90;;;;;;4958159;28;20564;-66
2023/11/21 08:18:20;;;;;;;10.65;5.50;;;8.10;99.90;;;;;;4959033;28;20403;-66
2023/11/21 08:20:49;;;;;;;7.30;5.07;;;8.20;99.90;;;;;;4961323;28;20042;-66
2023/11/21 08:23:19;;;;;;;9.07;5.22;;;8.20;99.90;;;;;;4959333;28;20027;-66
2023/11/21 08:25:45;;;;;;;8.43;4.68;;;8.20;99.90;;;;;;4963499;28;20042;-66
2023/11/21 08:28:14;;;;;;;9.65;4.45;;;8.30;99.90;;;;;;4961045;28;20473;-66
2023/11/21 08:30:41;;;;;;;6.80;4.00;;;8.30;99.90;;;;;;4961463;28;20042;-66
2023/11/21 08:33:08;;;;;;;10.88;4.45;;;8.30;99.90;;;;;;4959235;28;20056;-66
2023/11/21 08:35:34;;;;;;;7.18;4.00;;;8.20;99.90;;;;;;4961259;28;20038;-66
2023/11/21 08:38:01;;;;;;;5.70;4.22;;;8.30;99.90;;;;;;4962049;28;20102;-66
2023/11/21 08:40:26;;;;;;;8.18;3.90;;;8.30;99.90;;;;;;4963440;28;20039;-66
2023/11/21 08:42:52;;;;;;;6.97;4.28;;;8.30;99.90;;;;;;4948794;28;20030;-66
2023/11/21 08:45:19;;;;;;;6.50;3.80;;;8.30;99.90;;;;;;4959536;28;20746;-66
2023/11/21 08:47:45;;;;;;;8.07;5.13;;;8.30;99.90;;;;;;4965020;28;20144;-67
2023/11/21 08:50:12;;;;;;;7.00;4.07;;;8.30;99.90;;;;;;4959788;28;20458;-66
2023/11/21 08:52:38;;;;;;;6.18;4.20;;;8.30;99.90;;;;;;4961935;28;20053;-66
2023/11/21 08:55:08;;;;;;;5.65;3.63;;;8.30;99.90;;;;;;4942369;28;20125;-66
2023/11/21 08:57:35;;;;;;;6.03;3.63;;;8.20;99.90;;;;;;4960651;28;20035;-66
2023/11/21 09:00:04;;;;;;;6.78;4.00;;;8.20;99.90;;;;;;4959315;28;20030;-66
2023/11/21 09:02:31;;;;;;;5.90;3.58;;;8.30;99.90;;;;;;4958311;28;20035;-67
2023/11/21 09:04:58;;;;;;;5.47;3.20;;;8.30;99.90;;;;;;4961275;28;20506;-66
2023/11/21 09:07:25;;;;;;;6.00;3.92;;;8.30;99.90;;;;;;4957262;28;20446;-66
2023/11/21 09:09:51;;;;;;;5.25;3.55;;;8.30;99.90;;;;;;4963139;28;20054;-66
2023/11/21 09:12:19;;;;;;;7.95;3.30;;;8.40;99.90;;;;;;4959075;28;20058;-66
2023/11/21 09:14:45;;;;;;;129.68;17.73;;;8.40;99.90;;;;;;4961683;28;20827;-66
2023/11/21 09:17:11;;;;;;;18.42;6.10;;;8.40;99.90;;;;;;4958964;28;20054;-66
2023/11/21 09:19:37;;;;;;;8.73;4.40;;;8.30;99.90;;;;;;4960314;28;20046;-66
2023/11/21 09:22:04;;;;;;;6.22;3.67;;;8.30;99.90;;;;;;4960715;28;20398;-66
2023/11/21 09:24:32;;;;;;;7.22;3.28;;;8.30;99.90;;;;;;4961164;28;20126;-67
2023/11/21 09:26:59;;;;;;;5.38;3.60;;;8.30;99.90;;;;;;4961527;28;20451;-66
2023/11/21 09:29:26;;;;;;;5.25;3.45;;;8.40;99.90;;;;;;4962128;28;20031;-69
2023/11/21 09:31:54;;;;;;;5.82;3.50;;;8.30;99.90;;;;;;4958014;28;20034;-66
2023/11/21 09:34:21;;;;;;;6.43;3.35;;;8.30;99.90;;;;;;4962932;28;20597;-70
2023/11/21 09:36:47;;;;;;;3.75;2.88;;;8.30;99.90;;;;;;4946643;28;20034;-66
2023/11/21 09:39:14;;;;;;;6.20;3.17;;;8.30;99.90;;;;;;4958890;28;20028;-66
2023/11/21 09:41:46;;;;;;;12.32;6.47;;;8.20;99.90;;;;;;4959567;28;20656;-66
2023/11/21 09:44:17;;;;;;;6.88;2.80;;;8.30;99.90;;;;;;4957897;28;20363;-65
2023/11/21 09:46:48;;;;;;;5.03;2.90;;;8.20;99.90;;;;;;4962052;28;20046;-65
2023/11/21 09:49:14;;;;;;;5.38;3.45;;;8.20;99.90;;;;;;4960385;28;20047;-65
2023/11/21 09:51:44;;;;;;;7.20;2.60;;;8.10;99.90;;;;;;4960900;28;20415;-66
2023/11/21 09:54:17;;;;;;;5.60;2.90;;;8.20;99.90;;;;;;4962570;28;20073;-65
2023/11/21 09:56:43;;;;;;;6.05;3.75;;;8.20;99.90;;;;;;4959047;28;20550;-70
2023/11/21 09:59:15;;;;;;;5.63;3.10;;;8.10;99.90;;;;;;4961431;28;20113;-67
2023/11/21 10:01:42;;;;;;;5.68;3.35;;;8.10;99.90;;;;;;4958652;28;20398;-66
2023/11/21 10:04:11;;;;;;;4.30;2.75;;;8.20;99.90;;;;;;4959267;28;20066;-66
2023/11/21 10:06:41;;;;;;;5.57;3.60;;;8.20;99.90;;;;;;4958982;28;20042;-66
2023/11/21 10:09:11;;;;;;;6.90;3.25;;;8.20;99.90;;;;;;4960556;28;20027;-66
2023/11/21 10:11:43;;;;;;;3.67;2.70;;;8.20;99.90;;;;;;4957409;28;20030;-66
2023/11/21 10:14:13;;;;;;;6.95;2.80;;;8.20;99.90;;;;;;4942348;28;20734;-66
2023/11/21 10:16:41;;;;;;;7.13;3.08;;;8.20;99.90;;;;;;4960972;28;20322;-66
2023/11/21 10:19:10;;;;;;;4.13;2.72;;;8.20;99.90;;;;;;4959775;28;20033;-67
2023/11/21 10:21:39;;;;;;;5.05;3.10;;;8.20;99.90;;;;;;4959602;28;20046;-66
2023/11/21 10:24:06;;;;;;;4.88;2.20;;;8.30;99.90;;;;;;4959366;28;20031;-66
2023/11/21 10:26:33;;;;;;;3.15;2.13;;;8.30;99.90;;;;;;4958951;28;20386;-66
2023/11/21 10:29:00;;;;;;;4.18;2.70;;;8.30;99.90;;;;;;4959510;28;20047;-66
2023/11/21 10:31:27;;;;;;;5.18;2.78;;;8.30;99.90;;;;;;4957754;28;20023;-66
2023/11/21 10:33:53;;;;;;;4.45;2.67;;;8.30;99.90;;;;;;4962507;28;20073;-66
2023/11/21 10:36:27;;;;;;;4.10;2.45;;;8.30;99.90;;;;;;4964540;28;20050;-68
2023/11/21 10:38:53;;;;;;;6.35;2.85;;;8.30;99.90;;;;;;4946222;28;20030;-65
2023/11/21 10:41:20;;;;;;;4.60;2.63;;;8.30;99.90;;;;;;4951444;28;20035;-68
2023/11/21 10:43:47;;;;;;;4.90;2.70;;;8.30;99.90;;;;;;4959710;28;20109;-68
2023/11/21 10:46:15;;;;;;;3.13;2.42;;;8.30;99.90;;;;;;4965223;28;20773;-67
2023/11/21 10:48:43;;;;;;;5.72;3.35;;;8.30;99.90;;;;;;4961264;28;20039;-68
2023/11/21 10:51:10;;;;;;;4.90;3.13;;;8.40;99.90;;;;;;4964123;28;20039;-67
2023/11/21 10:53:42;;;;;;;3.75;2.90;;;8.40;99.90;;;;;;4960707;28;20045;-68
2023/11/21 10:56:11;;;;;;;5.07;3.22;;;8.40;99.90;;;;;;4963765;28;20345;-69
2023/11/21 10:58:39;;;;;;;4.60;3.40;;;8.40;99.90;;;;;;4962773;28;20042;-68
2023/11/21 11:01:06;;;;;;;5.57;2.88;;;8.40;99.90;;;;;;4961739;28;20177;-67
2023/11/21 11:03:34;;;;;;;4.95;3.15;;;8.40;99.90;;;;;;4948382;28;20082;-67
2023/11/21 11:06:01;;;;;;;4.93;2.83;;;8.50;99.90;;;;;;4963885;28;20103;-67
2023/11/21 11:08:27;;;;;;;4.63;3.10;;;8.50;99.90;;;;;;4969698;28;20034;-67
2023/11/21 11:10:55;;;;;;;8.15;3.90;;;8.40;99.90;;;;;;4951778;28;20035;-67
2023/11/21 11:13:21;;;;;;;5.57;3.00;;;8.40;99.90;;;;;;4964659;28;20038;-68
2023/11/21 11:15:50;;;;;;;4.82;2.75;;;8.30;99.90;;;;;;4962521;28;20035;-68
2023/11/21 11:18:16;;;;;;;4.32;2.95;;;8.30;99.90;;;;;;4963890;28;20031;-67
2023/11/21 11:20:45;;;;;;;3.60;2.75;;;8.20;99.90;;;;;;4964550;28;20396;-68
2023/11/21 11:23:58;;;;;;;3.80;2.72;;;8.20;99.90;;;;;;4963202;28;20527;-68
2023/11/21 11:26:56;;;;;;;6.82;3.30;;;8.30;99.90;;;;;;4963670;28;20149;-68
2023/11/21 11:30:14;;;;;;;5.65;3.15;;;8.30;99.90;;;;;;4963532;28;20034;-68
2023/11/21 11:33:13;;;;;;;4.90;3.22;;;8.30;99.90;;;;;;4902719;28;20159;-68
2023/11/21 11:36:07;;;;;;;5.13;3.03;;;8.30;99.90;;;;;;4962231;28;20613;-67
2023/11/21 11:38:35;;;;;;;5.82;3.80;;;8.30;99.90;;;;;;4959425;28;20050;-67
2023/11/21 11:41:06;;;;;;;5.63;3.90;;;8.30;99.90;;;;;;4962139;28;20403;-67
2023/11/21 11:43:42;;;;;;;5.15;3.78;;;8.20;99.90;;;;;;4961814;28;20027;-67
2023/11/21 11:46:13;;;;;;;5.65;3.97;;;8.10;99.90;;;;;;4962032;28;20035;-67
2023/11/21 11:48:40;;;;;;;6.90;4.18;;;8.00;99.90;;;;;;4958969;28;20042;-68
2023/11/21 11:51:21;;;;;;;7.70;4.30;;;8.00;99.90;;;;;;4959040;28;20027;-68
2023/11/21 11:53:51;;;;;;;6.80;4.45;;;7.90;99.90;;;;;;4966268;28;20034;-68
2023/11/21 11:56:26;;;;;;;7.72;4.93;;;7.90;99.90;;;;;;4959743;28;20070;-68
2023/11/21 11:58:59;;;;;;;6.80;4.15;;;7.90;99.90;;;;;;4962757;28;20078;-67
2023/11/21 12:01:26;;;;;;;7.00;4.47;;;7.90;99.90;;;;;;4964000;28;20034;-67
2023/11/21 12:04:14;;;;;;;7.35;4.57;;;7.90;99.90;;;;;;4963276;28;20159;-67
2023/11/21 12:06:43;;;;;;;19.10;5.88;;;7.80;99.90;;;;;;4958725;28;20601;-67
2023/11/21 12:09:23;;;;;;;26.05;6.38;;;7.90;99.90;;;;;;4959447;28;20038;-67
2023/11/21 12:11:50;;;;;;;16.02;4.93;;;7.80;99.90;;;;;;4963432;28;20118;-67
2023/11/21 12:14:17;;;;;;;7.05;4.35;;;7.80;99.90;;;;;;4959830;28;20031;-67
2023/11/21 12:16:44;;;;;;;5.90;3.92;;;7.80;99.90;;;;;;4962562;28;20632;-66
2023/11/21 12:19:12;;;;;;;6.38;4.50;;;7.80;99.90;;;;;;4958350;28;20768;-67
2023/11/21 12:21:38;;;;;;;8.10;4.82;;;7.90;99.90;;;;;;4961947;28;20049;-67
2023/11/21 12:24:04;;;;;;;5.75;4.03;;;7.90;99.90;;;;;;4959894;28;20030;-67
2023/11/21 12:26:30;;;;;;;7.93;4.05;;;7.90;99.90;;;;;;4961865;28;20769;-69
2023/11/21 12:28:56;;;;;;;5.72;3.67;;;7.80;99.90;;;;;;4958474;28;20035;-70
2023/11/21 12:31:23;;;;;;;17.10;5.28;;;7.80;99.90;;;;;;4960655;28;20081;-70
2023/11/21 12:33:49;;;;;;;7.85;4.53;;;7.80;99.90;;;;;;4964718;28;20034;-70
2023/11/21 12:36:16;;;;;;;6.97;4.07;;;7.80;99.90;;;;;;4963371;28;20053;-70
2023/11/21 12:38:42;;;;;;;6.70;3.97;;;7.80;99.90;;;;;;4956862;28;20043;-70
2023/11/21 12:41:10;;;;;;;7.55;4.10;;;7.80;99.90;;;;;;4960026;28;20077;-67
2023/11/21 12:43:36;;;;;;;17.90;5.93;;;7.90;99.90;;;;;;4961228;28;20039;-72
2023/11/21 12:46:09;;;;;;;46.65;8.13;;;7.90;99.90;;;;;;4957794;28;20094;-68
2023/11/21 12:48:42;;;;;;;43.05;8.63;;;7.90;99.90;;;;;;4960362;28;20023;-67
2023/11/21 12:51:09;;;;;;;29.85;6.90;;;7.90;99.90;;;;;;4939890;28;20035;-67
2023/11/21 12:53:38;;;;;;;27.95;5.38;;;7.80;99.90;;;;;;4962151;28;20038;-68
2023/11/21 12:56:11;;;;;;;11.65;5.03;;;7.80;99.90;;;;;;4940504;28;20050;-68